sensor_id;sensor_type;location;lat;lon;timestamp;temperature;humidity
4215;DHT22;2121;48.062;7.850;2022-09-03T00:06:01;16.10;99.90
4215;DHT22;2121;48.062;7.850;2022-09-03T00:09:00;16.20;99.90
4215;DHT22;2121;48.062;7.850;2022-09-03T00:11:42;16.20;99.90
4215;DHT22;2121;48.062;7.850;2022-09-03T00:14:31;16.30;99.90
4215;DHT22;2121;48.062;7.850;2022-09-03T00:17:07;16.30;99.90
4215;DHT22;2121;48.062;7.850;2022-09-03T00:20:24;16.30;99.90
4215;DHT22;2121;48.062;7.850;2022-09-03T00:22:48;16.30;99.90
4215;DHT22;2121;48.062;7.850;2022-09-03T00:25:28;16.30;99.90
4215;DHT22;2121;48.062;7.850;2022-09-03T00:28:01;16.30;99.90
4215;DHT22;2121;48.062;7.850;2022-09-03T00:30:31;16.30;99.90
4215;DHT22;2121;48.062;7.850;2022-09-03T00:33:02;16.30;99.90
4215;DHT22;2121;48.062;7.850;2022-09-03T00:35:54;16.30;99.90
4215;DHT22;2121;48.062;7.850;2022-09-03T00:38:29;16.30;99.90
4215;DHT22;2121;48.062;7.850;2022-09-03T00:53:18;16.40;99.90
4215;DHT22;2121;48.062;7.850;2022-09-03T01:08:18;16.50;99.90
4215;DHT22;2121;48.062;7.850;2022-09-03T01:10:56;16.50;99.90
4215;DHT22;2121;48.062;7.850;2022-09-03T01:25:47;16.30;99.90
4215;DHT22;2121;48.062;7.850;2022-09-03T01:31:36;16.30;99.90
4215;DHT22;2121;48.062;7.850;2022-09-03T01:40:16;16.20;99.90
4215;DHT22;2121;48.062;7.850;2022-09-03T01:43:12;16.10;99.90
4215;DHT22;2121;48.062;7.850;2022-09-03T01:57:17;16.30;99.90
4215;DHT22;2121;48.062;7.850;2022-09-03T01:59:54;16.30;99.90
4215;DHT22;2121;48.062;7.850;2022-09-03T02:02:31;16.30;99.90
4215;DHT22;2121;48.062;7.850;2022-09-03T02:05:10;16.40;99.90
4215;DHT22;2121;48.062;7.850;2022-09-03T02:07:46;16.50;99.90
4215;DHT22;2121;48.062;7.850;2022-09-03T02:10:16;16.50;99.90
4215;DHT22;2121;48.062;7.850;2022-09-03T02:13:17;16.60;99.90
4215;DHT22;2121;48.062;7.850;2022-09-03T02:15:44;16.50;99.90
4215;DHT22;2121;48.062;7.850;2022-09-03T02:18:19;16.40;99.90
4215;DHT22;2121;48.062;7.850;2022-09-03T02:20:48;16.30;99.90
4215;DHT22;2121;48.062;7.850;2022-09-03T02:23:15;16.20;99.90
4215;DHT22;2121;48.062;7.850;2022-09-03T02:25:44;16.00;99.90
4215;DHT22;2121;48.062;7.850;2022-09-03T02:28:13;15.90;99.90
4215;DHT22;2121;48.062;7.850;2022-09-03T02:30:40;16.00;99.90
4215;DHT22;2121;48.062;7.850;2022-09-03T02:33:06;16.00;99.90
4215;DHT22;2121;48.062;7.850;2022-09-03T02:35:33;16.00;99.90
4215;DHT22;2121;48.062;7.850;2022-09-03T02:40:41;16.00;99.90
4215;DHT22;2121;48.062;7.850;2022-09-03T02:43:12;16.10;99.90
4215;DHT22;2121;48.062;7.850;2022-09-03T02:45:45;16.10;99.90
4215;DHT22;2121;48.062;7.850;2022-09-03T02:48:13;16.00;99.90
4215;DHT22;2121;48.062;7.850;2022-09-03T02:50:42;15.90;99.90
4215;DHT22;2121;48.062;7.850;2022-09-03T02:53:08;15.90;99.90
4215;DHT22;2121;48.062;7.850;2022-09-03T02:55:34;15.90;99.90
4215;DHT22;2121;48.062;7.850;2022-09-03T02:58:00;15.90;99.90
4215;DHT22;2121;48.062;7.850;2022-09-03T03:00:26;15.80;99.90
4215;DHT22;2121;48.062;7.850;2022-09-03T03:02:54;15.80;99.90
4215;DHT22;2121;48.062;7.850;2022-09-03T03:08:10;15.80;99.90
4215;DHT22;2121;48.062;7.850;2022-09-03T03:10:40;15.80;99.90
4215;DHT22;2121;48.062;7.850;2022-09-03T03:13:06;16.00;99.90
4215;DHT22;2121;48.062;7.850;2022-09-03T03:15:32;16.10;99.90
4215;DHT22;2121;48.062;7.850;2022-09-03T03:17:58;16.30;99.90
4215;DHT22;2121;48.062;7.850;2022-09-03T03:20:23;16.20;99.90
4215;DHT22;2121;48.062;7.850;2022-09-03T03:22:49;16.10;99.90
4215;DHT22;2121;48.062;7.850;2022-09-03T03:25:15;16.20;99.90
4215;DHT22;2121;48.062;7.850;2022-09-03T03:27:41;16.30;99.90
4215;DHT22;2121;48.062;7.850;2022-09-03T03:30:08;16.30;99.90
4215;DHT22;2121;48.062;7.850;2022-09-03T03:32:36;16.30;99.90
4215;DHT22;2121;48.062;7.850;2022-09-03T03:35:03;16.30;99.90
4215;DHT22;2121;48.062;7.850;2022-09-03T03:37:30;16.30;99.90
4215;DHT22;2121;48.062;7.850;2022-09-03T03:39:57;16.30;99.90
4215;DHT22;2121;48.062;7.850;2022-09-03T03:42:23;16.40;99.90
4215;DHT22;2121;48.062;7.850;2022-09-03T03:44:48;16.40;99.90
4215;DHT22;2121;48.062;7.850;2022-09-03T03:47:14;16.30;99.90
4215;DHT22;2121;48.062;7.850;2022-09-03T03:49:42;16.40;99.90
4215;DHT22;2121;48.062;7.850;2022-09-03T03:52:08;16.40;99.90
4215;DHT22;2121;48.062;7.850;2022-09-03T03:54:34;16.40;99.90
4215;DHT22;2121;48.062;7.850;2022-09-03T03:57:00;16.40;99.90
4215;DHT22;2121;48.062;7.850;2022-09-03T03:59:25;16.30;99.90
4215;DHT22;2121;48.062;7.850;2022-09-03T04:01:53;16.20;99.90
4215;DHT22;2121;48.062;7.850;2022-09-03T04:04:19;16.10;99.90
4215;DHT22;2121;48.062;7.850;2022-09-03T04:06:45;16.10;99.90
4215;DHT22;2121;48.062;7.850;2022-09-03T04:09:11;16.00;99.90
4215;DHT22;2121;48.062;7.850;2022-09-03T04:11:37;16.00;99.90
4215;DHT22;2121;48.062;7.850;2022-09-03T04:14:03;16.00;99.90
4215;DHT22;2121;48.062;7.850;2022-09-03T04:16:29;16.00;99.90
4215;DHT22;2121;48.062;7.850;2022-09-03T04:18:56;16.00;99.90
4215;DHT22;2121;48.062;7.850;2022-09-03T04:21:24;16.10;99.90
4215;DHT22;2121;48.062;7.850;2022-09-03T04:23:51;16.10;99.90
4215;DHT22;2121;48.062;7.850;2022-09-03T04:26:23;16.20;99.90
4215;DHT22;2121;48.062;7.850;2022-09-03T04:28:50;16.20;99.90
4215;DHT22;2121;48.062;7.850;2022-09-03T04:31:17;16.20;99.90
4215;DHT22;2121;48.062;7.850;2022-09-03T04:33:44;16.20;99.90
4215;DHT22;2121;48.062;7.850;2022-09-03T04:36:22;16.20;99.90
4215;DHT22;2121;48.062;7.850;2022-09-03T04:38:51;16.30;99.90
4215;DHT22;2121;48.062;7.850;2022-09-03T04:41:21;16.30;99.90
4215;DHT22;2121;48.062;7.850;2022-09-03T04:43:52;16.30;99.90
4215;DHT22;2121;48.062;7.850;2022-09-03T04:46:21;16.20;99.90
4215;DHT22;2121;48.062;7.850;2022-09-03T04:48:49;16.20;99.90
4215;DHT22;2121;48.062;7.850;2022-09-03T04:51:19;16.30;99.90
4215;DHT22;2121;48.062;7.850;2022-09-03T04:53:51;16.40;99.90
4215;DHT22;2121;48.062;7.850;2022-09-03T04:56:21;16.40;99.90
4215;DHT22;2121;48.062;7.850;2022-09-03T04:58:54;16.50;99.90
4215;DHT22;2121;48.062;7.850;2022-09-03T05:01:23;16.50;99.90
4215;DHT22;2121;48.062;7.850;2022-09-03T05:03:50;16.50;99.90
4215;DHT22;2121;48.062;7.850;2022-09-03T05:06:19;16.50;99.90
4215;DHT22;2121;48.062;7.850;2022-09-03T05:08:48;16.40;99.90
4215;DHT22;2121;48.062;7.850;2022-09-03T05:11:15;16.40;99.90
4215;DHT22;2121;48.062;7.850;2022-09-03T05:13:46;16.20;99.90
4215;DHT22;2121;48.062;7.850;2022-09-03T05:16:14;16.10;99.90
4215;DHT22;2121;48.062;7.850;2022-09-03T05:18:40;16.00;99.90
4215;DHT22;2121;48.062;7.850;2022-09-03T05:21:12;16.00;99.90
4215;DHT22;2121;48.062;7.850;2022-09-03T05:23:45;16.00;99.90
4215;DHT22;2121;48.062;7.850;2022-09-03T05:26:15;15.90;99.90
4215;DHT22;2121;48.062;7.850;2022-09-03T05:28:42;16.00;99.90
4215;DHT22;2121;48.062;7.850;2022-09-03T05:31:11;16.10;99.90
4215;DHT22;2121;48.062;7.850;2022-09-03T05:33:47;16.20;99.90
4215;DHT22;2121;48.062;7.850;2022-09-03T05:36:16;16.20;99.90
4215;DHT22;2121;48.062;7.850;2022-09-03T05:38:44;16.30;99.90
4215;DHT22;2121;48.062;7.850;2022-09-03T05:41:11;16.40;99.90
4215;DHT22;2121;48.062;7.850;2022-09-03T05:43:39;16.50;99.90
4215;DHT22;2121;48.062;7.850;2022-09-03T05:46:12;16.70;99.90
4215;DHT22;2121;48.062;7.850;2022-09-03T05:48:41;16.70;99.90
4215;DHT22;2121;48.062;7.850;2022-09-03T05:51:14;16.60;99.90
4215;DHT22;2121;48.062;7.850;2022-09-03T05:53:42;16.70;99.90
4215;DHT22;2121;48.062;7.850;2022-09-03T05:56:11;16.70;99.90
4215;DHT22;2121;48.062;7.850;2022-09-03T05:58:40;16.70;99.90
4215;DHT22;2121;48.062;7.850;2022-09-03T06:01:16;16.70;99.90
4215;DHT22;2121;48.062;7.850;2022-09-03T06:03:45;16.70;99.90
4215;DHT22;2121;48.062;7.850;2022-09-03T06:06:22;16.80;99.90
4215;DHT22;2121;48.062;7.850;2022-09-03T06:08:50;17.00;99.90
4215;DHT22;2121;48.062;7.850;2022-09-03T06:11:17;17.10;99.90
4215;DHT22;2121;48.062;7.850;2022-09-03T06:13:43;17.30;99.90
4215;DHT22;2121;48.062;7.850;2022-09-03T06:16:08;17.40;99.90
4215;DHT22;2121;48.062;7.850;2022-09-03T06:18:34;17.40;99.90
4215;DHT22;2121;48.062;7.850;2022-09-03T06:21:05;17.40;99.90
4215;DHT22;2121;48.062;7.850;2022-09-03T06:23:33;17.50;99.90
4215;DHT22;2121;48.062;7.850;2022-09-03T06:28:34;17.90;99.90
4215;DHT22;2121;48.062;7.850;2022-09-03T06:31:03;18.10;99.90
4215;DHT22;2121;48.062;7.850;2022-09-03T06:33:32;18.20;99.90
4215;DHT22;2121;48.062;7.850;2022-09-03T06:36:00;18.20;99.90
4215;DHT22;2121;48.062;7.850;2022-09-03T06:38:28;18.20;99.90
4215;DHT22;2121;48.062;7.850;2022-09-03T06:41:02;18.60;99.90
4215;DHT22;2121;48.062;7.850;2022-09-03T06:43:32;18.80;99.90
4215;DHT22;2121;48.062;7.850;2022-09-03T06:46:15;19.00;99.90
4215;DHT22;2121;48.062;7.850;2022-09-03T06:48:42;19.10;99.90
4215;DHT22;2121;48.062;7.850;2022-09-03T06:51:09;19.20;99.90
4215;DHT22;2121;48.062;7.850;2022-09-03T06:53:38;19.40;99.90
4215;DHT22;2121;48.062;7.850;2022-09-03T06:56:07;19.50;99.90
4215;DHT22;2121;48.062;7.850;2022-09-03T06:58:37;19.40;99.90
4215;DHT22;2121;48.062;7.850;2022-09-03T07:01:09;19.30;99.90
4215;DHT22;2121;48.062;7.850;2022-09-03T07:03:38;19.40;99.90
4215;DHT22;2121;48.062;7.850;2022-09-03T07:06:13;19.30;99.90
4215;DHT22;2121;48.062;7.850;2022-09-03T07:08:40;19.20;99.90
4215;DHT22;2121;48.062;7.850;2022-09-03T07:11:09;19.40;99.90
4215;DHT22;2121;48.062;7.850;2022-09-03T07:13:39;19.50;99.90
4215;DHT22;2121;48.062;7.850;2022-09-03T07:16:27;19.80;99.90
4215;DHT22;2121;48.062;7.850;2022-09-03T07:18:56;20.10;99.90
4215;DHT22;2121;48.062;7.850;2022-09-03T07:21:24;20.40;99.90
4215;DHT22;2121;48.062;7.850;2022-09-03T07:23:51;20.80;99.90
4215;DHT22;2121;48.062;7.850;2022-09-03T07:26:20;21.30;99.90
4215;DHT22;2121;48.062;7.850;2022-09-03T07:28:49;21.80;99.90
4215;DHT22;2121;48.062;7.850;2022-09-03T07:33:55;22.30;99.90
4215;DHT22;2121;48.062;7.850;2022-09-03T07:36:22;22.60;99.90
4215;DHT22;2121;48.062;7.850;2022-09-03T07:38:49;22.80;99.90
4215;DHT22;2121;48.062;7.850;2022-09-03T07:41:15;23.10;99.90
4215;DHT22;2121;48.062;7.850;2022-09-03T07:43:45;23.00;99.90
4215;DHT22;2121;48.062;7.850;2022-09-03T07:46:19;23.10;99.90
4215;DHT22;2121;48.062;7.850;2022-09-03T07:48:50;23.20;99.90
4215;DHT22;2121;48.062;7.850;2022-09-03T07:51:22;23.40;99.90
4215;DHT22;2121;48.062;7.850;2022-09-03T07:53:57;23.70;99.90
4215;DHT22;2121;48.062;7.850;2022-09-03T07:56:25;23.80;99.90
4215;DHT22;2121;48.062;7.850;2022-09-03T07:58:52;23.90;99.90
4215;DHT22;2121;48.062;7.850;2022-09-03T08:01:21;23.80;99.90
4215;DHT22;2121;48.062;7.850;2022-09-03T08:03:50;23.60;99.90
4215;DHT22;2121;48.062;7.850;2022-09-03T08:06:19;23.40;99.90
4215;DHT22;2121;48.062;7.850;2022-09-03T08:08:46;23.30;99.90
4215;DHT22;2121;48.062;7.850;2022-09-03T08:11:17;23.10;99.90
4215;DHT22;2121;48.062;7.850;2022-09-03T08:13:48;23.20;99.90
4215;DHT22;2121;48.062;7.850;2022-09-03T08:16:19;23.30;99.90
4215;DHT22;2121;48.062;7.850;2022-09-03T08:18:45;23.30;99.90
4215;DHT22;2121;48.062;7.850;2022-09-03T08:21:17;23.60;99.90
4215;DHT22;2121;48.062;7.850;2022-09-03T08:23:49;24.10;99.90
4215;DHT22;2121;48.062;7.850;2022-09-03T08:26:19;24.60;99.90
4215;DHT22;2121;48.062;7.850;2022-09-03T08:28:46;24.40;99.90
4215;DHT22;2121;48.062;7.850;2022-09-03T08:31:17;24.30;99.90
4215;DHT22;2121;48.062;7.850;2022-09-03T08:33:47;24.30;99.90
4215;DHT22;2121;48.062;7.850;2022-09-03T08:38:47;24.20;99.90
4215;DHT22;2121;48.062;7.850;2022-09-03T08:41:27;24.10;99.90
4215;DHT22;2121;48.062;7.850;2022-09-03T08:44:22;23.90;99.90
4215;DHT22;2121;48.062;7.850;2022-09-03T08:47:53;23.80;99.90
4215;DHT22;2121;48.062;7.850;2022-09-03T08:55:54;23.10;99.90
4215;DHT22;2121;48.062;7.850;2022-09-03T08:58:28;23.30;99.90
4215;DHT22;2121;48.062;7.850;2022-09-03T09:06:57;23.20;99.90
4215;DHT22;2121;48.062;7.850;2022-09-03T09:09:40;23.10;99.90
4215;DHT22;2121;48.062;7.850;2022-09-03T09:17:51;23.30;99.90
4215;DHT22;2121;48.062;7.850;2022-09-03T09:20:50;23.30;99.90
4215;DHT22;2121;48.062;7.850;2022-09-03T09:23:32;23.20;99.90
4215;DHT22;2121;48.062;7.850;2022-09-03T09:26:07;23.10;99.90
4215;DHT22;2121;48.062;7.850;2022-09-03T09:28:37;23.10;99.90
4215;DHT22;2121;48.062;7.850;2022-09-03T09:31:05;23.00;99.90
4215;DHT22;2121;48.062;7.850;2022-09-03T09:33:33;22.80;99.90
4215;DHT22;2121;48.062;7.850;2022-09-03T09:36:05;22.60;99.90
4215;DHT22;2121;48.062;7.850;2022-09-03T09:38:36;22.30;99.90
4215;DHT22;2121;48.062;7.850;2022-09-03T09:41:17;22.20;99.90
4215;DHT22;2121;48.062;7.850;2022-09-03T09:43:45;22.00;99.90
4215;DHT22;2121;48.062;7.850;2022-09-03T09:46:23;21.80;99.90
4215;DHT22;2121;48.062;7.850;2022-09-03T09:48:52;21.50;99.90
4215;DHT22;2121;48.062;7.850;2022-09-03T09:51:23;21.20;99.90
4215;DHT22;2121;48.062;7.850;2022-09-03T09:54:13;20.90;99.90
4215;DHT22;2121;48.062;7.850;2022-09-03T09:56:45;20.20;99.90
4215;DHT22;2121;48.062;7.850;2022-09-03T09:59:13;19.80;99.90
4215;DHT22;2121;48.062;7.850;2022-09-03T10:01:44;19.70;99.90
4215;DHT22;2121;48.062;7.850;2022-09-03T10:04:24;19.60;99.90
4215;DHT22;2121;48.062;7.850;2022-09-03T10:07:04;19.00;99.90
4215;DHT22;2121;48.062;7.850;2022-09-03T10:09:44;18.60;99.90
4215;DHT22;2121;48.062;7.850;2022-09-03T10:12:27;18.20;99.90
4215;DHT22;2121;48.062;7.850;2022-09-03T10:15:21;17.70;99.90
4215;DHT22;2121;48.062;7.850;2022-09-03T10:24:00;17.10;99.90
4215;DHT22;2121;48.062;7.850;2022-09-03T10:26:30;16.90;99.90
4215;DHT22;2121;48.062;7.850;2022-09-03T10:28:59;16.80;99.90
4215;DHT22;2121;48.062;7.850;2022-09-03T10:34:52;16.70;99.90
4215;DHT22;2121;48.062;7.850;2022-09-03T10:38:09;16.70;99.90
4215;DHT22;2121;48.062;7.850;2022-09-03T10:41:02;16.70;99.90
4215;DHT22;2121;48.062;7.850;2022-09-03T10:44:00;16.70;99.90
4215;DHT22;2121;48.062;7.850;2022-09-03T10:47:03;16.80;99.90
4215;DHT22;2121;48.062;7.850;2022-09-03T10:50:09;17.00;99.90
4215;DHT22;2121;48.062;7.850;2022-09-03T10:55:34;17.00;99.90
4215;DHT22;2121;48.062;7.850;2022-09-03T11:07:07;17.60;99.90
4215;DHT22;2121;48.062;7.850;2022-09-03T11:10:26;17.70;99.90
4215;DHT22;2121;48.062;7.850;2022-09-03T11:13:06;17.70;99.90
4215;DHT22;2121;48.062;7.850;2022-09-03T11:15:52;18.10;99.90
4215;DHT22;2121;48.062;7.850;2022-09-03T11:18:37;18.30;99.90
4215;DHT22;2121;48.062;7.850;2022-09-03T11:21:09;18.30;99.90
4215;DHT22;2121;48.062;7.850;2022-09-03T11:23:41;18.20;99.90
4215;DHT22;2121;48.062;7.850;2022-09-03T11:26:11;18.30;99.90
4215;DHT22;2121;48.062;7.850;2022-09-03T11:37:25;20.80;99.90
4215;DHT22;2121;48.062;7.850;2022-09-03T11:40:14;21.10;99.90
4215;DHT22;2121;48.062;7.850;2022-09-03T11:42:44;21.50;99.90
4215;DHT22;2121;48.062;7.850;2022-09-03T11:47:47;21.90;99.90
4215;DHT22;2121;48.062;7.850;2022-09-03T11:52:52;22.50;99.90
4215;DHT22;2121;48.062;7.850;2022-09-03T11:55:51;22.20;99.90
4215;DHT22;2121;48.062;7.850;2022-09-03T11:58:36;21.80;99.90
4215;DHT22;2121;48.062;7.850;2022-09-03T12:01:15;21.70;99.90
4215;DHT22;2121;48.062;7.850;2022-09-03T12:04:04;21.80;99.90
4215;DHT22;2121;48.062;7.850;2022-09-03T12:12:42;23.10;99.90
4215;DHT22;2121;48.062;7.850;2022-09-03T12:18:07;23.60;99.90
4215;DHT22;2121;48.062;7.850;2022-09-03T12:20:44;24.50;99.90
4215;DHT22;2121;48.062;7.850;2022-09-03T12:23:33;25.40;99.90
4215;DHT22;2121;48.062;7.850;2022-09-03T12:26:04;26.10;99.90
4215;DHT22;2121;48.062;7.850;2022-09-03T12:28:35;25.50;99.90
4215;DHT22;2121;48.062;7.850;2022-09-03T12:31:13;25.40;99.60
4215;DHT22;2121;48.062;7.850;2022-09-03T12:34:13;25.40;98.90
4215;DHT22;2121;48.062;7.850;2022-09-03T12:36:49;25.40;99.90
4215;DHT22;2121;48.062;7.850;2022-09-03T12:39:22;25.30;99.80
4215;DHT22;2121;48.062;7.850;2022-09-03T12:49:40;26.20;96.70
4215;DHT22;2121;48.062;7.850;2022-09-03T12:52:32;25.90;96.80
4215;DHT22;2121;48.062;7.850;2022-09-03T12:57:53;25.90;97.10
4215;DHT22;2121;48.062;7.850;2022-09-03T13:00:45;26.00;97.50
4215;DHT22;2121;48.062;7.850;2022-09-03T13:03:38;25.60;97.70
4215;DHT22;2121;48.062;7.850;2022-09-03T13:06:10;25.30;97.40
4215;DHT22;2121;48.062;7.850;2022-09-03T13:09:05;25.10;97.50
4215;DHT22;2121;48.062;7.850;2022-09-03T13:11:34;25.40;97.80
4215;DHT22;2121;48.062;7.850;2022-09-03T13:14:04;25.60;96.90
4215;DHT22;2121;48.062;7.850;2022-09-03T13:25:12;26.80;96.70
4215;DHT22;2121;48.062;7.850;2022-09-03T13:31:02;27.30;96.50
4215;DHT22;2121;48.062;7.850;2022-09-03T13:34:19;27.20;94.80
4215;DHT22;2121;48.062;7.850;2022-09-03T13:39:57;28.00;94.10
4215;DHT22;2121;48.062;7.850;2022-09-03T13:45:35;28.60;92.30
4215;DHT22;2121;48.062;7.850;2022-09-03T13:48:19;28.50;92.20
4215;DHT22;2121;48.062;7.850;2022-09-03T13:51:19;28.10;92.80
4215;DHT22;2121;48.062;7.850;2022-09-03T13:54:21;27.90;93.40
4215;DHT22;2121;48.062;7.850;2022-09-03T13:59:55;27.70;91.80
4215;DHT22;2121;48.062;7.850;2022-09-03T14:05:42;28.50;92.20
4215;DHT22;2121;48.062;7.850;2022-09-03T14:08:27;28.50;91.20
4215;DHT22;2121;48.062;7.850;2022-09-03T14:19:10;27.70;91.70
4215;DHT22;2121;48.062;7.850;2022-09-03T14:21:49;27.90;92.40
4215;DHT22;2121;48.062;7.850;2022-09-03T14:24:19;27.70;91.80
4215;DHT22;2121;48.062;7.850;2022-09-03T14:27:00;27.70;92.50
4215;DHT22;2121;48.062;7.850;2022-09-03T14:29:32;27.10;92.60
4215;DHT22;2121;48.062;7.850;2022-09-03T14:32:23;26.90;93.10
4215;DHT22;2121;48.062;7.850;2022-09-03T14:38:08;27.10;93.40
4215;DHT22;2121;48.062;7.850;2022-09-03T14:46:54;28.30;93.00
4215;DHT22;2121;48.062;7.850;2022-09-03T15:01:10;34.80;79.60
4215;DHT22;2121;48.062;7.850;2022-09-03T15:09:20;29.10;88.90
4215;DHT22;2121;48.062;7.850;2022-09-03T15:12:24;29.40;89.70
4215;DHT22;2121;48.062;7.850;2022-09-03T15:14:59;31.30;87.90
4215;DHT22;2121;48.062;7.850;2022-09-03T15:20:25;38.00;76.30
4215;DHT22;2121;48.062;7.850;2022-09-03T15:41:45;39.40;66.10
4215;DHT22;2121;48.062;7.850;2022-09-03T15:44:16;40.50;65.70
4215;DHT22;2121;48.062;7.850;2022-09-03T15:55:39;37.50;66.50
4215;DHT22;2121;48.062;7.850;2022-09-03T15:58:33;38.70;66.10
4215;DHT22;2121;48.062;7.850;2022-09-03T16:01:20;39.40;65.10
4215;DHT22;2121;48.062;7.850;2022-09-03T16:12:58;36.60;65.90
4215;DHT22;2121;48.062;7.850;2022-09-03T16:15:56;35.00;68.00
4215;DHT22;2121;48.062;7.850;2022-09-03T16:18:44;35.50;67.40
4215;DHT22;2121;48.062;7.850;2022-09-03T16:29:55;35.80;67.10
4215;DHT22;2121;48.062;7.850;2022-09-03T16:32:56;36.20;67.10
4215;DHT22;2121;48.062;7.850;2022-09-03T16:45:05;35.20;67.20
4215;DHT22;2121;48.062;7.850;2022-09-03T16:47:50;34.40;68.80
4215;DHT22;2121;48.062;7.850;2022-09-03T16:50:43;32.50;70.90
4215;DHT22;2121;48.062;7.850;2022-09-03T16:53:34;30.40;75.60
4215;DHT22;2121;48.062;7.850;2022-09-03T17:08:26;26.90;84.20
4215;DHT22;2121;48.062;7.850;2022-09-03T17:11:41;26.20;86.30
4215;DHT22;2121;48.062;7.850;2022-09-03T17:20:14;30.90;79.40
4215;DHT22;2121;48.062;7.850;2022-09-03T17:25:34;33.30;74.60
4215;DHT22;2121;48.062;7.850;2022-09-03T17:34:25;27.80;82.90
4215;DHT22;2121;48.062;7.850;2022-09-03T17:37:30;26.00;87.50
4215;DHT22;2121;48.062;7.850;2022-09-03T17:40:27;25.20;89.90
4215;DHT22;2121;48.062;7.850;2022-09-03T17:43:16;24.80;90.60
4215;DHT22;2121;48.062;7.850;2022-09-03T17:46:10;24.40;91.30
4215;DHT22;2121;48.062;7.850;2022-09-03T17:48:51;24.00;92.20
4215;DHT22;2121;48.062;7.850;2022-09-03T17:55:01;23.40;93.20
4215;DHT22;2121;48.062;7.850;2022-09-03T17:57:26;23.20;93.90
4215;DHT22;2121;48.062;7.850;2022-09-03T18:00:08;23.00;94.50
4215;DHT22;2121;48.062;7.850;2022-09-03T18:03:18;22.70;95.10
4215;DHT22;2121;48.062;7.850;2022-09-03T18:06:02;22.40;96.00
4215;DHT22;2121;48.062;7.850;2022-09-03T18:11:21;21.90;97.50
4215;DHT22;2121;48.062;7.850;2022-09-03T18:14:14;21.70;98.10
4215;DHT22;2121;48.062;7.850;2022-09-03T18:17:04;21.70;99.00
4215;DHT22;2121;48.062;7.850;2022-09-03T18:19:47;21.60;99.40
4215;DHT22;2121;48.062;7.850;2022-09-03T18:25:47;21.30;99.90
4215;DHT22;2121;48.062;7.850;2022-09-03T18:28:45;21.10;99.90
4215;DHT22;2121;48.062;7.850;2022-09-03T18:31:30;20.90;99.90
4215;DHT22;2121;48.062;7.850;2022-09-03T18:34:16;20.70;99.90
4215;DHT22;2121;48.062;7.850;2022-09-03T18:37:05;20.60;99.90
4215;DHT22;2121;48.062;7.850;2022-09-03T18:39:50;20.50;99.90
4215;DHT22;2121;48.062;7.850;2022-09-03T18:42:48;20.30;99.90
4215;DHT22;2121;48.062;7.850;2022-09-03T18:45:59;20.30;99.90
4215;DHT22;2121;48.062;7.850;2022-09-03T18:49:16;20.10;99.90
4215;DHT22;2121;48.062;7.850;2022-09-03T18:52:16;20.00;99.90
4215;DHT22;2121;48.062;7.850;2022-09-03T18:58:47;19.70;99.90
4215;DHT22;2121;48.062;7.850;2022-09-03T19:01:39;19.50;99.90
4215;DHT22;2121;48.062;7.850;2022-09-03T19:05:05;19.40;99.90
4215;DHT22;2121;48.062;7.850;2022-09-03T19:08:26;19.30;99.90
4215;DHT22;2121;48.062;7.850;2022-09-03T19:14:11;19.00;99.90
4215;DHT22;2121;48.062;7.850;2022-09-03T19:20:18;18.80;99.90
4215;DHT22;2121;48.062;7.850;2022-09-03T19:23:09;18.70;99.90
4215;DHT22;2121;48.062;7.850;2022-09-03T19:25:59;18.50;99.90
4215;DHT22;2121;48.062;7.850;2022-09-03T19:29:37;18.50;99.90
4215;DHT22;2121;48.062;7.850;2022-09-03T19:36:20;18.20;99.90
4215;DHT22;2121;48.062;7.850;2022-09-03T19:39:19;18.20;99.90
4215;DHT22;2121;48.062;7.850;2022-09-03T19:42:49;18.20;99.90
4215;DHT22;2121;48.062;7.850;2022-09-03T19:45:45;18.00;99.90
4215;DHT22;2121;48.062;7.850;2022-09-03T19:48:58;18.00;99.90
4215;DHT22;2121;48.062;7.850;2022-09-03T19:54:56;18.00;99.90
4215;DHT22;2121;48.062;7.850;2022-09-03T19:57:43;17.90;99.90
4215;DHT22;2121;48.062;7.850;2022-09-03T20:00:30;17.90;99.90
4215;DHT22;2121;48.062;7.850;2022-09-03T20:03:14;17.90;99.90
4215;DHT22;2121;48.062;7.850;2022-09-03T20:06:01;17.90;99.90
4215;DHT22;2121;48.062;7.850;2022-09-03T20:08:49;18.00;99.90
4215;DHT22;2121;48.062;7.850;2022-09-03T20:11:34;17.90;99.90
4215;DHT22;2121;48.062;7.850;2022-09-03T20:14:02;17.90;99.90
4215;DHT22;2121;48.062;7.850;2022-09-03T20:27:59;17.40;99.90
4215;DHT22;2121;48.062;7.850;2022-09-03T20:42:03;17.30;99.90
4215;DHT22;2121;48.062;7.850;2022-09-03T21:01:59;16.70;99.90
4215;DHT22;2121;48.062;7.850;2022-09-03T21:10:54;16.60;99.90
4215;DHT22;2121;48.062;7.850;2022-09-03T21:14:06;16.60;99.90
4215;DHT22;2121;48.062;7.850;2022-09-03T21:20:21;16.70;99.90
4215;DHT22;2121;48.062;7.850;2022-09-03T21:23:40;16.60;99.90
4215;DHT22;2121;48.062;7.850;2022-09-03T21:26:24;16.50;99.90
4215;DHT22;2121;48.062;7.850;2022-09-03T21:31:39;16.30;99.90
4215;DHT22;2121;48.062;7.850;2022-09-03T21:34:20;16.30;99.90
4215;DHT22;2121;48.062;7.850;2022-09-03T21:36:55;16.20;99.90
4215;DHT22;2121;48.062;7.850;2022-09-03T21:39:47;16.10;99.90
4215;DHT22;2121;48.062;7.850;2022-09-03T21:48:16;16.10;99.90
4215;DHT22;2121;48.062;7.850;2022-09-03T21:50:52;16.10;99.90
4215;DHT22;2121;48.062;7.850;2022-09-03T21:53:39;16.10;99.90
4215;DHT22;2121;48.062;7.850;2022-09-03T22:04:30;15.90;99.90
4215;DHT22;2121;48.062;7.850;2022-09-03T22:09:44;15.80;99.90
4215;DHT22;2121;48.062;7.850;2022-09-03T22:12:28;15.80;99.90
4215;DHT22;2121;48.062;7.850;2022-09-03T22:15:00;15.70;99.90
4215;DHT22;2121;48.062;7.850;2022-09-03T22:17:58;15.50;99.90
4215;DHT22;2121;48.062;7.850;2022-09-03T22:20:27;15.50;99.90
4215;DHT22;2121;48.062;7.850;2022-09-03T22:22:59;15.40;99.90
4215;DHT22;2121;48.062;7.850;2022-09-03T22:25:38;15.50;99.90
4215;DHT22;2121;48.062;7.850;2022-09-03T22:28:41;15.60;99.90
4215;DHT22;2121;48.062;7.850;2022-09-03T22:31:34;15.50;99.90
4215;DHT22;2121;48.062;7.850;2022-09-03T22:43:33;15.30;99.90
4215;DHT22;2121;48.062;7.850;2022-09-03T22:46:17;15.20;99.90
4215;DHT22;2121;48.062;7.850;2022-09-03T22:49:09;15.20;99.90
4215;DHT22;2121;48.062;7.850;2022-09-03T22:54:50;15.20;99.90
4215;DHT22;2121;48.062;7.850;2022-09-03T22:57:26;15.20;99.90
4215;DHT22;2121;48.062;7.850;2022-09-03T22:59:59;15.20;99.90
4215;DHT22;2121;48.062;7.850;2022-09-03T23:02:28;15.20;99.90
4215;DHT22;2121;48.062;7.850;2022-09-03T23:13:46;15.10;99.90
4215;DHT22;2121;48.062;7.850;2022-09-03T23:22:21;15.00;99.90
4215;DHT22;2121;48.062;7.850;2022-09-03T23:25:00;14.90;99.90
4215;DHT22;2121;48.062;7.850;2022-09-03T23:27:38;14.90;99.90
4215;DHT22;2121;48.062;7.850;2022-09-03T23:30:07;14.80;99.90
4215;DHT22;2121;48.062;7.850;2022-09-03T23:32:33;14.80;99.90
4215;DHT22;2121;48.062;7.850;2022-09-03T23:35:01;14.70;99.90
4215;DHT22;2121;48.062;7.850;2022-09-03T23:54:21;14.40;99.90
4215;DHT22;2121;48.062;7.850;2022-09-03T23:57:04;14.40;99.90
